Time;durP1;ratioP1;P1;durP2;ratioP2;P2;SDS_P1;SDS_P2;PMS_P1;PMS_P2;Temp;Humidity;BMP_temperature;BMP_pressure;BME280_temperature;BME280_humidity;BME280_pressure;Samples;Min_cycle;Max_cycle;Signal;HPM_P1;HPM_P2
2023/10/30 00:00:18;;;;;;;0.20;0.20;;;;;;;16.99;86.32;100245.44;5013808;28;20485;-91
2023/10/30 00:02:43;;;;;;;0.20;0.20;;;;;;;17.11;88.29;100249.84;4997138;28;20026;-92
2023/10/30 00:05:09;;;;;;;0.20;0.20;;;;;;;16.91;88.49;100235.44;4997212;28;20034;-92
2023/10/30 00:07:34;;;;;;;0.20;0.20;;;;;;;17.00;85.54;100249.88;5014493;28;20052;-91
2023/10/30 00:10:00;;;;;;;0.20;0.20;;;;;;;17.06;85.76;100248.25;4996859;28;20030;-91
2023/10/30 00:12:25;;;;;;;0.20;0.20;;;;;;;17.13;84.32;100259.47;4996942;28;20419;-92
2023/10/30 00:14:51;;;;;;;0.20;0.20;;;;;;;17.19;83.53;100251.41;5014141;28;20621;-92
2023/10/30 00:17:16;;;;;;;0.20;0.20;;;;;;;17.22;86.51;100253.44;5013998;28;20477;-92
2023/10/30 00:19:42;;;;;;;0.20;0.20;;;;;;;16.79;86.65;100194.53;4996128;28;20426;-89
2023/10/30 00:22:11;;;;;;;0.20;0.20;;;;;;;17.19;86.23;100240.97;4996061;28;20030;-91
2023/10/30 00:24:37;;;;;;;0.20;0.20;;;;;;;17.20;86.57;100231.31;4997858;28;20030;-91
2023/10/30 00:27:02;;;;;;;0.20;0.20;;;;;;;17.38;85.74;100244.53;5014080;28;20041;-91
2023/10/30 00:29:28;;;;;;;0.20;0.20;;;;;;;17.07;84.97;100226.56;4996507;28;20034;-91
2023/10/30 00:31:53;;;;;;;0.20;0.20;;;;;;;16.98;86.28;100215.72;5013573;28;20060;-91
2023/10/30 00:34:18;;;;;;;0.20;0.20;;;;;;;16.84;86.25;100199.72;4996183;28;20092;-91
2023/10/30 00:36:44;;;;;;;0.20;0.20;;;;;;;17.24;87.35;100256.63;5013292;28;20033;-92
2023/10/30 00:39:09;;;;;;;0.20;0.20;;;;;;;17.17;84.80;100260.25;5013545;28;20105;-90
2023/10/30 00:41:35;;;;;;;0.20;0.20;;;;;;;17.21;87.15;100254.63;5013632;28;20026;-91
2023/10/30 00:44:00;;;;;;;0.20;0.20;;;;;;;17.20;88.18;100247.38;5013842;28;20026;-91
2023/10/30 00:46:25;;;;;;;0.20;0.20;;;;;;;17.18;89.92;100250.63;4995356;28;20666;-91
2023/10/30 00:48:51;;;;;;;0.20;0.20;;;;;;;17.10;88.35;100249.03;5013652;28;20030;-92
2023/10/30 00:51:16;;;;;;;0.20;0.20;;;;;;;16.89;88.20;100229.44;4995938;28;20033;-92
2023/10/30 00:53:42;;;;;;;0.20;0.20;;;;;;;17.00;89.19;100255.50;5013626;28;20393;-91
2023/10/30 00:56:07;;;;;;;0.20;0.20;;;;;;;16.92;88.45;100246.25;5013579;28;20136;-91
2023/10/30 00:58:34;;;;;;;0.20;0.20;;;;;;;16.93;89.41;100238.63;5013444;28;20034;-91
2023/10/30 01:00:59;;;;;;;0.20;0.20;;;;;;;16.76;88.04;100214.97;4997596;28;20022;-91
2023/10/30 01:03:25;;;;;;;0.20;0.20;;;;;;;16.96;89.46;100237.84;5015973;28;20029;-91
2023/10/30 01:06:01;;;;;;;0.20;0.20;;;;;;;16.93;88.18;100233.00;5012217;28;20026;-91
2023/10/30 01:08:26;;;;;;;0.20;0.20;;;;;;;17.06;91.81;100227.78;5013164;28;20022;-91
2023/10/30 01:10:53;;;;;;;0.20;0.20;;;;;;;16.75;90.05;100194.53;4995929;28;20037;-91
2023/10/30 01:13:18;;;;;;;0.20;0.20;;;;;;;16.98;89.94;100227.78;4998020;28;20030;-92
2023/10/30 01:15:44;;;;;;;0.20;0.20;;;;;;;16.99;91.08;100231.38;4999659;28;20069;-92
2023/10/30 01:18:09;;;;;;;0.20;0.20;;;;;;;16.89;91.13;100226.63;5017045;28;20076;-91
2023/10/30 01:20:41;;;;;;;0.20;0.20;;;;;;;16.77;87.88;100222.19;5017085;28;20080;-91
2023/10/30 01:23:06;;;;;;;0.20;0.20;;;;;;;16.88;88.00;100219.38;5016898;28;20033;-92
2023/10/30 01:25:32;;;;;;;0.20;0.20;;;;;;;16.69;88.66;100196.09;4998973;28;20088;-92
2023/10/30 01:27:57;;;;;;;0.20;0.20;;;;;;;16.88;90.71;100219.38;4999321;28;20022;-91
2023/10/30 01:30:23;;;;;;;0.20;0.20;;;;;;;16.85;89.48;100225.81;5017024;28;20030;-91
2023/10/30 01:32:48;;;;;;;0.20;0.20;;;;;;;16.70;91.32;100197.72;5016873;28;20064;-92
2023/10/30 01:35:13;;;;;;;0.20;0.20;;;;;;;16.81;91.15;100208.94;5016547;28;20052;-92
2023/10/30 01:37:39;;;;;;;0.20;0.20;;;;;;;16.76;91.33;100212.97;4981151;28;20478;-92
2023/10/30 01:40:06;;;;;;;0.20;0.20;;;;;;;16.82;92.03;100221.00;4996423;28;20029;-92
2023/10/30 01:42:31;;;;;;;0.20;0.20;;;;;;;16.72;90.35;100222.59;4996821;28;20037;-93
2023/10/30 01:44:58;;;;;;;0.20;0.20;;;;;;;16.79;89.72;100210.56;4979328;28;20014;-92
2023/10/30 01:47:25;;;;;;;0.20;0.20;;;;;;;16.65;89.96;100202.94;4979610;28;20027;-92
2023/10/30 01:49:54;;;;;;;0.20;0.20;;;;;;;16.72;89.98;100209.38;4979088;28;20023;-92
2023/10/30 01:52:21;;;;;;;0.20;0.20;;;;;;;16.29;91.25;100154.44;4979090;28;20026;-92
2023/10/30 01:54:49;;;;;;;0.20;0.20;;;;;;;16.69;92.80;100207.34;4979324;28;20084;-92
2023/10/30 01:57:17;;;;;;;0.20;0.20;;;;;;;16.62;90.97;100207.38;4996275;28;20031;-91
2023/10/30 01:59:43;;;;;;;0.20;0.20;;;;;;;16.61;96.15;100186.06;4978989;28;20632;-92
2023/10/30 02:02:08;;;;;;;0.20;0.20;;;;;;;16.59;91.23;100182.09;4979077;28;20022;-91
2023/10/30 02:04:35;;;;;;;0.20;0.20;;;;;;;16.69;90.80;100201.72;4979370;28;20109;-92
2023/10/30 02:07:02;;;;;;;0.20;0.20;;;;;;;16.64;91.12;100202.13;4992252;28;20030;-93
2023/10/30 02:09:28;;;;;;;0.20;0.20;;;;;;;16.47;93.18;100183.31;5016111;28;20652;-93
2023/10/30 02:11:55;;;;;;;0.20;0.20;;;;;;;16.49;94.61;100186.50;4998570;28;20018;-92
2023/10/30 02:14:20;;;;;;;0.20;0.20;;;;;;;16.52;93.72;100202.56;4998797;28;20093;-91
2023/10/30 02:16:45;;;;;;;0.20;0.20;;;;;;;16.38;92.94;100197.75;4998299;28;20032;-92
2023/10/30 02:19:21;;;;;;;0.20;0.20;;;;;;;16.31;94.18;100177.31;4998937;28;20386;-92
2023/10/30 02:21:47;;;;;;;0.20;0.20;;;;;;;16.33;92.42;100189.72;4998421;28;20140;-92
2023/10/30 02:24:12;;;;;;;0.20;0.20;;;;;;;16.41;94.36;100201.78;4997655;28;20126;-92
2023/10/30 02:26:38;;;;;;;0.20;0.20;;;;;;;16.34;93.91;100187.72;5015757;28;20026;-92
2023/10/30 02:29:04;;;;;;;0.20;0.20;;;;;;;16.35;92.59;100192.13;5016009;28;20053;-90
2023/10/30 02:31:30;;;;;;;0.20;0.20;;;;;;;16.30;93.32;100200.94;4998539;28;20076;-92
2023/10/30 02:33:56;;;;;;;0.20;0.20;;;;;;;16.21;93.12;100199.34;4998761;28;20030;-92
2023/10/30 02:36:21;;;;;;;0.20;0.20;;;;;;;16.17;93.22;100189.31;4997848;28;20040;-92
2023/10/30 02:38:46;;;;;;;0.20;0.20;;;;;;;16.19;93.16;100182.13;5015453;28;20026;-92
2023/10/30 02:41:12;;;;;;;0.20;0.20;;;;;;;16.04;93.99;100191.75;4998106;28;20122;-92
2023/10/30 02:43:37;;;;;;;0.30;0.30;;;;;;;16.16;94.18;100196.94;4998295;28;20030;-93
2023/10/30 02:46:05;;;;;;;0.20;0.20;;;;;;;16.12;94.12;100196.13;5016579;28;20034;-92
2023/10/30 02:48:31;;;;;;;0.20;0.20;;;;;;;16.06;93.74;100178.09;4999474;28;20026;-93
2023/10/30 02:54:25;;;;;;;0.20;0.20;;;;;;;15.92;94.26;100183.69;5015843;23;20063;-91
2023/10/30 02:56:50;;;;;;;0.20;0.20;;;;;;;15.98;95.32;100185.72;4959382;28;20079;-93
2023/10/30 02:59:16;;;;;;;0.20;0.20;;;;;;;15.89;95.02;100187.31;4958733;28;20513;-93
2023/10/30 03:01:41;;;;;;;0.20;0.20;;;;;;;15.89;94.65;100190.13;4958958;28;20042;-93
2023/10/30 03:04:07;;;;;;;0.20;0.20;;;;;;;15.96;96.83;100192.91;4974809;28;20550;-93
2023/10/30 03:06:32;;;;;;;0.20;0.20;;;;;;;15.89;97.12;100176.09;4958851;28;20065;-93
2023/10/30 03:09:00;;;;;;;0.20;0.20;;;;;;;15.77;93.83;100179.28;4958150;28;20027;-93
2023/10/30 03:11:26;;;;;;;0.20;0.20;;;;;;;15.84;94.79;100184.91;4957773;28;20180;-92
2023/10/30 03:13:51;;;;;;;0.20;0.20;;;;;;;15.90;94.64;100188.91;4958120;28;20394;-94
2023/10/30 03:16:17;;;;;;;0.20;0.20;;;;;;;16.00;96.63;100188.13;4959071;28;20046;-94
2023/10/30 03:18:43;;;;;;;0.20;0.20;;;;;;;15.83;93.10;100160.84;4975878;28;20030;-93
2023/10/30 03:21:08;;;;;;;0.20;0.20;;;;;;;15.77;92.61;100160.44;4976520;28;20380;-93
2023/10/30 03:23:34;;;;;;;0.20;0.20;;;;;;;15.91;91.71;100179.28;4973971;28;20037;-93
2023/10/30 03:25:59;;;;;;;0.20;0.20;;;;;;;15.87;92.28;100178.47;4975301;28;20034;-93
2023/10/30 03:28:24;;;;;;;0.20;0.20;;;;;;;16.00;93.12;100182.50;4980625;28;20056;-91
2023/10/30 03:30:50;;;;;;;0.20;0.20;;;;;;;15.79;90.51;100160.84;4969134;28;20037;-93
2023/10/30 03:33:23;;;;;;;0.20;0.20;;;;;;;15.96;90.04;100165.66;4959640;28;20403;-91
2023/10/30 03:35:49;;;;;;;;;;;;;;;15.95;90.83;100168.88;4958546;28;20034;-93
2023/10/30 03:38:15;;;;;;;0.20;0.20;;;;;;;15.83;89.08;100166.47;4975915;28;19914;-93
2023/10/30 03:40:41;;;;;;;0.20;0.20;;;;;;;15.92;92.13;100158.44;4958539;28;20022;-93
2023/10/30 03:43:06;;;;;;;0.20;0.20;;;;;;;15.58;89.75;100161.56;4958278;28;20038;-91
2023/10/30 03:45:32;;;;;;;0.20;0.20;;;;;;;15.59;90.29;100168.78;4958482;28;20046;-93
2023/10/30 03:47:58;;;;;;;0.20;0.20;;;;;;;15.62;91.85;100156.78;4958220;28;20022;-93
2023/10/30 03:50:24;;;;;;;0.25;0.25;;;;;;;15.55;91.32;100153.94;4958265;28;20042;-93
2023/10/30 03:52:50;;;;;;;0.20;0.20;;;;;;;15.45;90.19;100138.72;4981738;28;20046;-93
2023/10/30 03:55:17;;;;;;;0.20;0.20;;;;;;;15.52;90.78;100146.34;4961383;28;20553;-92
2023/10/30 03:57:43;;;;;;;0.20;0.20;;;;;;;15.50;92.24;100153.53;4977636;28;20399;-93
2023/10/30 04:00:09;;;;;;;0.20;0.20;;;;;;;15.65;94.19;100149.59;4977356;28;20026;-93
2023/10/30 04:02:35;;;;;;;0.20;0.20;;;;;;;15.51;93.06;100133.53;4994728;28;20030;-93
2023/10/30 04:05:00;;;;;;;0.20;0.20;;;;;;;15.65;90.05;100153.19;4976861;28;20032;-93
2023/10/30 04:07:26;;;;;;;0.20;0.20;;;;;;;15.49;87.49;100130.31;4977235;28;20033;-93
2023/10/30 04:09:51;;;;;;;0.20;0.20;;;;;;;15.71;90.53;100132.00;4979119;28;20053;-93
2023/10/30 04:12:20;;;;;;;0.20;0.20;;;;;;;15.70;90.30;100135.16;4977462;28;20474;-94
2023/10/30 04:14:45;;;;;;;0.20;0.20;;;;;;;15.69;85.50;100144.78;4977271;28;20122;-92
2023/10/30 04:19:56;;;;;;;0.20;0.20;;;;;;;15.63;83.83;100127.56;5042204;23;20097;-92
2023/10/30 04:25:33;;;;;;;0.20;0.20;;;;;;;15.77;83.67;100120.38;5047214;22;20125;-90
2023/10/30 04:27:59;;;;;;;0.20;0.20;;;;;;;15.70;85.10;100118.34;5014133;28;20026;-93
2023/10/30 04:30:24;;;;;;;0.20;0.20;;;;;;;15.60;82.46;100105.06;5013751;28;20040;-93
2023/10/30 04:32:50;;;;;;;0.20;0.20;;;;;;;15.86;80.72;100123.56;5012461;28;20026;-93
2023/10/30 04:35:16;;;;;;;0.20;0.20;;;;;;;15.92;80.12;100116.34;4996286;28;20034;-92
2023/10/30 04:37:42;;;;;;;0.20;0.20;;;;;;;15.38;80.61;100054.59;4980423;28;20069;-91
2023/10/30 04:40:08;;;;;;;0.20;0.20;;;;;;;15.68;80.47;100099.13;5013910;28;20052;-93
2023/10/30 04:42:33;;;;;;;0.20;0.20;;;;;;;15.84;78.47;100115.56;5012134;28;20102;-93
2023/10/30 04:44:59;;;;;;;0.20;0.20;;;;;;;15.84;77.93;100095.13;5013562;28;20064;-93
2023/10/30 04:47:25;;;;;;;0.20;0.20;;;;;;;15.90;78.68;100121.56;4998759;28;20064;-93
2023/10/30 04:49:50;;;;;;;0.20;0.20;;;;;;;15.65;77.35;100083.06;5016262;28;20026;-93
2023/10/30 04:52:15;;;;;;;0.20;0.20;;;;;;;15.91;76.23;100100.72;5016947;28;20397;-92
2023/10/30 04:54:41;;;;;;;0.20;0.20;;;;;;;15.90;76.64;100099.13;4999533;28;20033;-92
2023/10/30 04:57:06;;;;;;;0.20;0.20;;;;;;;15.98;78.76;100123.19;5017647;28;20030;-94
2023/10/30 04:59:32;;;;;;;0.20;0.20;;;;;;;15.93;75.84;100103.94;5000145;28;20061;-93
2023/10/30 05:01:57;;;;;;;0.20;0.20;;;;;;;15.87;75.84;100089.53;5017834;28;20029;-93
2023/10/30 05:04:22;;;;;;;0.20;0.20;;;;;;;15.76;75.46;100088.69;5017574;28;20108;-92
2023/10/30 05:06:48;;;;;;;0.20;0.20;;;;;;;15.92;80.88;100096.72;5007497;28;20134;-93
2023/10/30 05:09:13;;;;;;;0.20;0.20;;;;;;;15.91;76.17;100095.13;4999478;28;20101;-93
2023/10/30 05:11:39;;;;;;;0.20;0.20;;;;;;;16.04;68.21;100104.75;4999824;28;20018;-92
2023/10/30 05:14:05;;;;;;;0.20;0.20;;;;;;;16.03;65.97;100091.09;5000117;28;20022;-93
2023/10/30 05:16:31;;;;;;;0.20;0.20;;;;;;;16.31;68.64;100112.72;5016763;28;20025;-94
2023/10/30 05:18:56;;;;;;;0.20;0.20;;;;;;;16.20;67.40;100091.09;4999659;28;20030;-93
2023/10/30 05:21:21;;;;;;;0.20;0.20;;;;;;;16.31;68.85;100101.50;5016972;28;20049;-92
2023/10/30 05:23:48;;;;;;;0.20;0.20;;;;;;;16.39;66.59;100119.91;5016999;28;20046;-93
2023/10/30 05:26:14;;;;;;;0.20;0.20;;;;;;;16.31;65.13;100112.72;4999824;28;20076;-92
2023/10/30 05:28:39;;;;;;;0.20;0.20;;;;;;;16.25;65.06;100095.50;4999174;28;20033;-92
2023/10/30 05:31:05;;;;;;;0.20;0.20;;;;;;;16.36;65.49;100087.06;4999238;28;20112;-92
2023/10/30 05:33:31;;;;;;;0.20;0.20;;;;;;;16.38;65.61;100098.66;4999236;28;20089;-93
2023/10/30 05:35:57;;;;;;;0.20;0.20;;;;;;;16.47;65.63;100125.13;4999081;28;20030;-93
2023/10/30 05:38:22;;;;;;;0.20;0.20;;;;;;;16.55;66.48;100117.47;5016381;28;20091;-93
2023/10/30 05:40:48;;;;;;;0.20;0.20;;;;;;;16.54;66.02;100112.28;4999139;28;20026;-91
2023/10/30 05:43:14;;;;;;;0.20;0.20;;;;;;;16.72;68.48;100105.44;4998741;28;20065;-93
2023/10/30 05:45:40;;;;;;;0.20;0.20;;;;;;;17.40;67.21;100124.78;5016686;28;20056;-92
2023/10/30 05:48:05;;;;;;;0.20;0.20;;;;;;;17.89;59.02;100130.50;5016456;28;20061;-92
2023/10/30 05:50:31;;;;;;;0.20;0.20;;;;;;;18.08;56.77;100109.47;4998741;28;20057;-91
2023/10/30 05:52:56;;;;;;;0.20;0.20;;;;;;;18.75;57.96;100139.81;4999000;28;20080;-92
2023/10/30 05:55:22;;;;;;;0.20;0.20;;;;;;;19.05;55.57;100119.28;5016077;28;20091;-93
2023/10/30 05:57:47;;;;;;;0.20;0.20;;;;;;;19.52;53.15;100118.66;4998493;28;20025;-91
2023/10/30 06:00:13;;;;;;;0.20;0.20;;;;;;;19.85;51.81;100134.69;5015989;28;20498;-91
2023/10/30 06:02:39;;;;;;;0.20;0.20;;;;;;;20.38;49.74;100133.00;4998427;28;20018;-91
2023/10/30 06:05:06;;;;;;;0.20;0.20;;;;;;;20.79;49.40;100122.59;5015847;28;20032;-91
2023/10/30 06:07:32;;;;;;;0.20;0.20;;;;;;;21.19;46.72;100134.69;4998357;28;20030;-90
2023/10/30 06:09:58;;;;;;;0.20;0.20;;;;;;;21.62;46.95;100128.88;5015935;28;20026;-91
2023/10/30 06:12:23;;;;;;;0.20;0.20;;;;;;;22.32;44.63;100150.31;5015648;28;20018;-89
2023/10/30 06:14:48;;;;;;;0.20;0.20;;;;;;;22.83;43.01;100138.41;4998152;28;20077;-90
2023/10/30 06:17:14;;;;;;;0.20;0.20;;;;;;;22.57;44.43;100137.50;5015467;28;20026;-90
2023/10/30 06:19:40;;;;;;;0.20;0.20;;;;;;;22.92;44.47;100145.06;5015113;28;20021;-90
2023/10/30 06:22:06;;;;;;;0.20;0.20;;;;;;;23.20;44.17;100134.13;4997632;28;20026;-90
2023/10/30 06:24:31;;;;;;;0.20;0.20;;;;;;;23.55;42.95;100157.03;4997600;28;20141;-91
2023/10/30 06:26:57;;;;;;;0.20;0.20;;;;;;;23.31;41.83;100137.44;4997379;28;20030;-91
2023/10/30 06:29:22;;;;;;;0.20;0.20;;;;;;;23.76;39.90;100142.19;4997208;28;20065;-89
2023/10/30 06:31:48;;;;;;;0.20;0.20;;;;;;;24.02;39.02;100157.97;4997249;28;20030;-90
2023/10/30 06:34:13;;;;;;;0.20;0.20;;;;;;;24.07;40.52;100113.94;4997397;28;20022;-89
2023/10/30 06:36:39;;;;;;;0.20;0.20;;;;;;;24.64;40.14;100145.34;4997567;28;20029;-91
2023/10/30 06:39:04;;;;;;;0.20;0.20;;;;;;;24.44;40.78;100146.41;4998174;28;20025;-90
2023/10/30 06:41:30;;;;;;;0.10;0.10;;;;;;;24.92;38.88;100152.84;5015629;28;20053;-90
2023/10/30 06:43:55;;;;;;;0.20;0.20;;;;;;;25.08;36.86;100164.06;4997972;28;20028;-90
2023/10/30 06:46:20;;;;;;;0.20;0.20;;;;;;;25.54;35.69;100167.19;4997581;28;20445;-91
2023/10/30 06:48:46;;;;;;;0.20;0.20;;;;;;;25.44;35.43;100161.91;4997841;28;20025;-90
2023/10/30 06:51:11;;;;;;;0.20;0.20;;;;;;;25.58;36.67;100170.72;5015102;28;20099;-91
2023/10/30 06:53:37;;;;;;;0.20;0.20;;;;;;;25.40;35.82;100169.81;5014969;28;20034;-92
2023/10/30 06:56:02;;;;;;;0.10;0.10;;;;;;;25.63;36.12;100177.88;4997117;28;20077;-92
2023/10/30 06:58:27;;;;;;;0.20;0.20;;;;;;;25.89;35.45;100169.13;4997263;28;20061;-90
2023/10/30 07:01:02;;;;;;;0.15;0.15;;;;;;;26.78;31.90;100182.53;4996931;28;20407;-91
2023/10/30 07:03:28;;;;;;;0.10;0.10;;;;;;;25.72;29.53;100188.50;4998564;28;20402;-91
2023/10/30 07:05:53;;;;;;;0.20;0.20;;;;;;;26.70;32.31;100176.34;4997022;28;20053;-91
2023/10/30 07:08:19;;;;;;;0.20;0.20;;;;;;;26.49;33.50;100180.91;5013683;28;20038;-90
2023/10/30 07:10:44;;;;;;;0.20;0.20;;;;;;;26.54;32.95;100174.59;5013932;28;20601;-91
2023/10/30 07:13:09;;;;;;;0.10;0.10;;;;;;;26.80;31.49;100185.72;5014865;28;20030;-91
2023/10/30 07:15:35;;;;;;;0.20;0.20;;;;;;;26.98;32.99;100184.91;5014326;28;20064;-90
2023/10/30 07:18:00;;;;;;;0.10;0.10;;;;;;;26.39;31.79;100165.81;4996899;28;20117;-91
2023/10/30 07:20:25;;;;;;;0.13;0.13;;;;;;;26.39;28.25;100179.28;5011376;28;20036;-90
2023/10/30 07:22:52;;;;;;;0.20;0.20;;;;;;;27.01;29.09;100190.47;5012029;28;20033;-91
2023/10/30 07:25:18;;;;;;;0.20;0.20;;;;;;;27.19;31.10;100203.97;5011954;28;20120;-90
2023/10/30 07:27:43;;;;;;;0.20;0.20;;;;;;;27.35;29.66;100185.69;5012171;28;20446;-90
2023/10/30 07:30:09;;;;;;;0.10;0.10;;;;;;;27.48;28.85;100200.56;4994991;28;20498;-91
2023/10/30 07:32:35;;;;;;;0.10;0.10;;;;;;;27.74;30.28;100195.31;5013173;28;20030;-90
2023/10/30 07:35:00;;;;;;;0.20;0.20;;;;;;;27.46;28.09;100200.28;5013007;28;20378;-90
2023/10/30 07:37:27;;;;;;;0.10;0.10;;;;;;;27.57;28.03;100192.00;4996904;28;20048;-90
2023/10/30 07:39:52;;;;;;;0.20;0.20;;;;;;;27.91;28.81;100192.84;5012966;28;20030;-90
2023/10/30 07:42:18;;;;;;;0.10;0.10;;;;;;;28.17;26.96;100194.00;5013184;28;20022;-90
2023/10/30 07:44:43;;;;;;;0.13;0.13;;;;;;;28.20;28.11;100197.97;4996396;28;20096;-92
2023/10/30 07:47:10;;;;;;;0.20;0.20;;;;;;;28.67;26.86;100202.97;5013096;28;20054;-90
2023/10/30 07:49:36;;;;;;;0.20;0.20;;;;;;;28.11;27.54;100198.81;4995757;28;20470;-91
2023/10/30 07:52:01;;;;;;;0.10;0.10;;;;;;;28.15;26.25;100187.19;4996473;28;20057;-91
2023/10/30 07:54:26;;;;;;;0.15;0.15;;;;;;;28.33;26.37;100192.84;4998325;28;20133;-91
2023/10/30 07:56:52;;;;;;;0.10;0.10;;;;;;;27.05;28.44;100165.38;5011380;28;20010;-90
2023/10/30 07:59:17;;;;;;;0.10;0.10;;;;;;;27.07;29.55;100165.75;5018975;28;20037;-91
2023/10/30 08:01:45;;;;;;;0.10;0.10;;;;;;;27.66;28.61;100200.56;5033058;28;20037;-91
2023/10/30 08:04:10;;;;;;;0.10;0.10;;;;;;;28.07;27.45;100185.94;4995363;28;20544;-90
2023/10/30 08:06:36;;;;;;;0.20;0.20;;;;;;;27.13;29.79;100192.38;4994636;28;20022;-91
2023/10/30 08:09:01;;;;;;;0.10;0.10;;;;;;;27.07;30.34;100193.50;5012336;28;20072;-91
2023/10/30 08:11:27;;;;;;;0.10;0.10;;;;;;;28.03;28.77;100186.16;5012410;28;20053;-91
2023/10/30 08:13:53;;;;;;;0.20;0.20;;;;;;;27.89;29.06;100198.28;5011918;28;20068;-91
2023/10/30 08:16:18;;;;;;;0.10;0.10;;;;;;;28.13;28.15;100202.00;4994665;28;20171;-91
2023/10/30 08:18:44;;;;;;;0.20;0.20;;;;;;;28.29;28.41;100189.34;5012473;28;20088;-90
2023/10/30 08:21:09;;;;;;;0.17;0.17;;;;;;;27.81;29.57;100183.53;4995606;28;20048;-91
2023/10/30 08:23:36;;;;;;;0.10;0.10;;;;;;;27.79;29.85;100202.44;5000741;28;20481;-91
2023/10/30 08:26:06;;;;;;;0.13;0.13;;;;;;;27.31;30.12;100187.91;5018599;28;20092;-90
2023/10/30 08:28:31;;;;;;;0.20;0.20;;;;;;;27.56;29.41;100176.13;5018959;28;20034;-91
2023/10/30 08:30:57;;;;;;;0.17;0.17;;;;;;;28.06;29.01;100176.59;5001230;28;20060;-90
2023/10/30 08:33:22;;;;;;;0.10;0.10;;;;;;;27.38;30.74;100187.59;5000739;28;20030;-91
2023/10/30 08:35:48;;;;;;;0.10;0.10;;;;;;;27.89;30.75;100181.13;5000664;28;20041;-90
2023/10/30 08:38:13;;;;;;;0.20;0.20;;;;;;;28.42;29.39;100180.56;5018481;28;20042;-91
2023/10/30 08:40:39;;;;;;;0.10;0.10;;;;;;;28.13;29.46;100193.41;5019435;28;20221;-91
2023/10/30 08:43:04;;;;;;;0.10;0.10;;;;;;;28.27;29.44;100202.53;5036669;28;20040;-90
2023/10/30 08:45:30;;;;;;;0.20;0.20;;;;;;;28.29;29.67;100195.09;5028885;28;20040;-91
2023/10/30 08:47:55;;;;;;;0.10;0.10;;;;;;;28.37;28.47;100175.50;5019739;28;20088;-91
2023/10/30 08:50:21;;;;;;;0.10;0.10;;;;;;;28.34;30.26;100196.53;5012501;28;20026;-91
2023/10/30 08:52:46;;;;;;;0.10;0.10;;;;;;;29.07;27.79;100198.84;5003952;28;20041;-90
2023/10/30 08:55:11;;;;;;;0.10;0.10;;;;;;;29.12;27.87;100198.19;5001239;28;20042;-90
2023/10/30 08:57:37;;;;;;;0.10;0.10;;;;;;;29.19;27.45;100199.88;5011246;28;20029;-90
2023/10/30 09:00:07;;;;;;;0.20;0.20;;;;;;;28.04;27.26;100207.75;5019944;28;20017;-91
2023/10/30 09:02:33;;;;;;;0.20;0.20;;;;;;;28.33;27.92;100194.91;5019233;28;20061;-90
2023/10/30 09:04:59;;;;;;;0.20;0.20;;;;;;;29.18;26.14;100196.22;5019116;28;20105;-91
2023/10/30 09:07:24;;;;;;;0.10;0.10;;;;;;;28.18;28.12;100191.97;5002763;28;20072;-89
2023/10/30 09:09:50;;;;;;;0.10;0.10;;;;;;;28.46;27.51;100189.75;5018016;28;20113;-90
2023/10/30 09:12:17;;;;;;;0.20;0.20;;;;;;;28.83;27.72;100200.97;5004182;28;20116;-90
2023/10/30 09:14:42;;;;;;;0.10;0.10;;;;;;;29.03;28.04;100204.00;4999724;28;20022;-90
2023/10/30 09:17:08;;;;;;;0.10;0.10;;;;;;;28.52;27.78;100201.34;5000261;28;20040;-90
2023/10/30 09:19:37;;;;;;;0.20;0.20;;;;;;;28.96;27.72;100187.19;5000663;28;20121;-89
2023/10/30 09:22:03;;;;;;;0.10;0.10;;;;;;;28.06;28.30;100190.88;5000857;28;20041;-89
2023/10/30 09:24:29;;;;;;;0.20;0.20;;;;;;;27.67;28.31;100170.69;5000170;28;20038;-89
2023/10/30 09:26:54;;;;;;;0.10;0.10;;;;;;;26.94;27.94;100173.63;5000215;28;20034;-90
2023/10/30 09:29:20;;;;;;;0.13;0.13;;;;;;;27.14;28.95;100151.13;5002394;28;20425;-90
2023/10/30 09:31:46;;;;;;;0.20;0.20;;;;;;;27.83;28.50;100185.91;5007897;28;20033;-90
2023/10/30 09:34:12;;;;;;;0.20;0.20;;;;;;;28.34;26.82;100180.16;5017597;28;20029;-90
2023/10/30 09:36:37;;;;;;;0.10;0.10;;;;;;;28.66;25.66;100171.97;5003990;28;20116;-90
2023/10/30 09:39:03;;;;;;;0.20;0.20;;;;;;;28.56;26.81;100151.22;4993912;28;20026;-90
2023/10/30 09:41:29;;;;;;;0.20;0.20;;;;;;;28.17;26.51;100162.53;4976618;28;20438;-90
2023/10/30 09:43:57;;;;;;;0.20;0.20;;;;;;;27.85;27.40;100129.03;4976819;28;20050;-90
2023/10/30 09:46:28;;;;;;;0.10;0.10;;;;;;;27.71;27.91;100139.13;4994432;28;20041;-90
2023/10/30 09:48:56;;;;;;;0.10;0.10;;;;;;;28.23;28.19;100153.31;4976434;28;20038;-88
2023/10/30 09:51:23;;;;;;;0.10;0.10;;;;;;;27.65;28.27;100147.53;4993918;28;20486;-89
2023/10/30 09:53:49;;;;;;;0.20;0.20;;;;;;;27.70;27.88;100128.97;4976848;28;20030;-88
2023/10/30 09:56:16;;;;;;;0.20;0.20;;;;;;;27.54;28.64;100110.09;4975970;28;20106;-87
2023/10/30 09:58:42;;;;;;;0.20;0.20;;;;;;;28.11;28.23;100138.75;4993550;28;20505;-88
2023/10/30 10:01:07;;;;;;;0.20;0.20;;;;;;;27.36;29.42;100133.00;4976159;28;20026;-90
2023/10/30 10:03:33;;;;;;;0.20;0.20;;;;;;;27.77;28.97;100142.91;4975798;28;20030;-89
2023/10/30 10:06:00;;;;;;;0.10;0.10;;;;;;;28.44;28.03;100137.94;4989085;28;20082;-88
2023/10/30 10:08:26;;;;;;;0.15;0.15;;;;;;;28.44;28.37;100133.03;4957409;28;20042;-87
2023/10/30 10:11:02;;;;;;;0.20;0.20;;;;;;;28.89;28.41;100136.00;4957593;28;20031;-90
2023/10/30 10:13:29;;;;;;;0.10;0.10;;;;;;;29.21;27.64;100120.75;4974063;28;20033;-89
2023/10/30 10:15:55;;;;;;;0.20;0.20;;;;;;;29.27;27.93;100111.47;4957180;28;20525;-89
2023/10/30 10:18:27;;;;;;;0.20;0.20;;;;;;;29.53;26.78;100125.97;4957738;28;20031;-89
2023/10/30 10:21:01;;;;;;;0.20;0.20;;;;;;;29.36;24.46;100125.69;4973345;28;20066;-89
2023/10/30 10:23:31;;;;;;;0.20;0.20;;;;;;;29.10;25.34;100119.75;4934776;28;1173133;-89
2023/10/30 10:25:58;;;;;;;0.20;0.20;;;;;;;27.98;25.49;100101.03;4994107;28;20486;-89
2023/10/30 10:28:25;;;;;;;0.10;0.10;;;;;;;27.89;25.80;100109.66;4996618;28;20470;-89
2023/10/30 10:30:53;;;;;;;0.20;0.20;;;;;;;28.04;26.09;100104.81;4977202;28;20022;-90
2023/10/30 10:33:21;;;;;;;0.20;0.20;;;;;;;28.20;25.63;100106.44;4993792;28;20026;-90
2023/10/30 10:35:55;;;;;;;0.10;0.10;;;;;;;28.11;24.65;100095.84;4996234;28;20038;-89
2023/10/30 10:38:22;;;;;;;0.20;0.20;;;;;;;27.44;23.97;100070.63;4996803;28;20037;-90
2023/10/30 10:40:49;;;;;;;0.10;0.10;;;;;;;28.12;24.34;100099.50;5013320;28;20034;-91
2023/10/30 10:43:19;;;;;;;0.20;0.20;;;;;;;28.29;24.53;100091.31;5013840;28;20085;-90
2023/10/30 10:45:50;;;;;;;0.20;0.20;;;;;;;28.07;23.67;100086.69;4979475;28;20367;-89
2023/10/30 10:48:16;;;;;;;0.20;0.20;;;;;;;27.91;24.92;100078.50;4996252;28;20216;-87
2023/10/30 10:50:42;;;;;;;0.20;0.20;;;;;;;28.05;24.04;100077.00;4995860;28;20511;-88
2023/10/30 10:53:09;;;;;;;0.10;0.10;;;;;;;27.73;24.25;100067.16;5012913;28;20026;-87
2023/10/30 10:55:42;;;;;;;0.20;0.20;;;;;;;27.54;24.89;100067.25;5013068;28;20484;-88
2023/10/30 10:58:09;;;;;;;0.20;0.20;;;;;;;27.61;24.89;100071.81;5013872;28;20037;-88
2023/10/30 11:00:40;;;;;;;0.20;0.20;;;;;;;28.09;24.06;100063.31;4995953;28;20092;-89
2023/10/30 11:03:08;;;;;;;0.20;0.20;;;;;;;27.68;25.02;100046.50;4995307;28;20042;-89
2023/10/30 11:05:35;;;;;;;0.10;0.10;;;;;;;26.98;24.88;100040.09;5013090;28;20030;-89
2023/10/30 11:08:39;;;;;;;0.10;0.10;;;;;;;27.24;24.91;100043.38;4995962;28;20022;-90
2023/10/30 11:11:26;;;;;;;0.20;0.20;;;;;;;27.20;25.23;100047.69;5012924;28;20033;-92
2023/10/30 11:14:19;;;;;;;0.20;0.20;;;;;;;27.31;25.43;100037.31;4997449;28;20034;-90
2023/10/30 11:16:53;;;;;;;0.20;0.20;;;;;;;27.43;26.37;100044.09;5013137;28;20493;-90
2023/10/30 11:19:20;;;;;;;0.20;0.20;;;;;;;27.12;25.95;100025.19;5013371;28;20285;-89
2023/10/30 11:21:48;;;;;;;0.20;0.20;;;;;;;26.74;26.26;100036.31;4995880;28;20482;-91
2023/10/30 11:24:43;;;;;;;0.20;0.20;;;;;;;27.12;26.44;100016.63;5013655;28;20057;-90
2023/10/30 11:27:27;;;;;;;0.20;0.20;;;;;;;27.25;25.88;100027.03;4995769;28;20121;-90
2023/10/30 11:29:57;;;;;;;0.20;0.20;;;;;;;27.08;26.22;100023.78;4995900;28;20026;-92